עמוד ראשי
METAR-TAF:

METAR-TAF

שדות תעופה :

גרנדה, ספרד

קו רוחב: 37-11N, קו אורך: 003-47W, גובה: 567מטר

תצפית מזג אוויר נוכחית

הדו"ח נערך לפני 44דקות, בשעה 21:00 UTC
רוח 2קשר עם כיוונים משתנים
טמפרטורת 25 צלסיוס
לחות 34%
לחץ 1010 hPa
ראות 10 קילומטר או יותר
ללא עננים שבסיסם נמוך מ 5000 רגל או קומולונימבוס

METAR: LEGR 252100Z VRB02KT CAVOK 25/08 Q1010

זמן: 23:44 (21:44 UTC)

תחזית

הדו"ח נערך לפני 4 שעות ו 44דקות, בשעה 17:00 UTC
תחזית בתוקף מ 25 ב 18 UTC עד 26 ב 18 UTC
רוח 3קשר עם כיוונים משתנים
ראות 10 קילומטר או יותר
ללא עננים שבסיסם נמוך מ 5000 רגל או קומולונימבוס
הסתברות 30% :
זמנית מ -
25 ב 18 UTC עד 25 ב 20 UTC
רוח 10קשר מכיוון דרום
יעשה מ
26 ב 10 UTC עד 26 ב 12 UTC
רוח 10קשר מכיוון דרום

TAF: LEGR 251700Z 2518/2618 VRB03KT CAVOK TX35/2615Z TN16/2605Z PROB30 TEMPO 2518/2520 18010KT BECMG 2610/2612 18010KT

תצפיות ותחזיות מזג אוויר לגבי יותר מ- 4,000 שדות תעופה ברחבי העולם. דוחות METAR ו- TAF.

התחנות הזמינות מסומנות בנקודות צהובות ואדומות על גבי המפה.

העבר את העכבר לנקודה הצבעונית על מנת לראות את שם התחנה.

לאחר מכן, לחץ כדי לראות את תוכן ואת תחזיות מזג האוויר.

כדי לשנות את המפה: לחץ על הכפתורים הירוקים עם הפלוס השחור כדי להתקרב; על הכפתור הירוק עם המקף כדי להתרחק; או בחיצים הירוקים למפות סמוכות.


METAR-TAF: